sensor_id;sensor_type;location;lat;lon;timestamp;P1;durP1;ratioP1;P2;durP2;ratioP2
59504;SDS011;45321;53.200;5.814;2023-05-10T00:01:25;11.35;;;10.18;;
59504;SDS011;45321;53.200;5.814;2023-05-10T00:03:51;13.30;;;12.10;;
59504;SDS011;45321;53.200;5.814;2023-05-10T00:06:16;15.23;;;13.73;;
59504;SDS011;45321;53.200;5.814;2023-05-10T00:08:43;13.90;;;12.70;;
59504;SDS011;45321;53.200;5.814;2023-05-10T00:11:09;14.40;;;13.20;;
59504;SDS011;45321;53.200;5.814;2023-05-10T00:13:35;12.27;;;11.23;;
59504;SDS011;45321;53.200;5.814;2023-05-10T00:16:01;12.07;;;11.07;;
59504;SDS011;45321;53.200;5.814;2023-05-10T00:18:26;12.27;;;11.25;;
59504;SDS011;45321;53.200;5.814;2023-05-10T00:20:52;11.88;;;10.90;;
59504;SDS011;45321;53.200;5.814;2023-05-10T00:23:18;10.32;;;9.43;;
59504;SDS011;45321;53.200;5.814;2023-05-10T00:25:43;10.18;;;9.27;;
59504;SDS011;45321;53.200;5.814;2023-05-10T00:28:09;12.23;;;11.15;;
59504;SDS011;45321;53.200;5.814;2023-05-10T00:30:35;9.27;;;8.57;;
59504;SDS011;45321;53.200;5.814;2023-05-10T00:33:00;7.53;;;6.93;;
59504;SDS011;45321;53.200;5.814;2023-05-10T00:35:26;5.57;;;5.18;;
59504;SDS011;45321;53.200;5.814;2023-05-10T00:37:52;6.95;;;6.45;;
59504;SDS011;45321;53.200;5.814;2023-05-10T00:40:17;6.22;;;5.75;;
59504;SDS011;45321;53.200;5.814;2023-05-10T00:42:43;7.38;;;6.88;;
59504;SDS011;45321;53.200;5.814;2023-05-10T00:45:09;7.63;;;7.03;;
59504;SDS011;45321;53.200;5.814;2023-05-10T00:47:36;6.40;;;5.85;;
59504;SDS011;45321;53.200;5.814;2023-05-10T00:50:02;10.52;;;9.43;;
59504;SDS011;45321;53.200;5.814;2023-05-10T00:52:28;15.50;;;11.68;;
59504;SDS011;45321;53.200;5.814;2023-05-10T00:54:55;14.15;;;12.32;;
59504;SDS011;45321;53.200;5.814;2023-05-10T00:57:23;18.60;;;16.60;;
59504;SDS011;45321;53.200;5.814;2023-05-10T00:59:49;22.85;;;18.80;;
59504;SDS011;45321;53.200;5.814;2023-05-10T01:02:15;32.80;;;23.63;;
59504;SDS011;45321;53.200;5.814;2023-05-10T01:04:41;28.67;;;21.45;;
59504;SDS011;45321;53.200;5.814;2023-05-10T01:07:07;40.03;;;24.48;;
59504;SDS011;45321;53.200;5.814;2023-05-10T01:09:33;37.83;;;23.92;;
59504;SDS011;45321;53.200;5.814;2023-05-10T01:11:59;39.95;;;24.45;;
59504;SDS011;45321;53.200;5.814;2023-05-10T01:14:26;38.53;;;24.38;;
59504;SDS011;45321;53.200;5.814;2023-05-10T01:16:53;42.28;;;24.58;;
59504;SDS011;45321;53.200;5.814;2023-05-10T01:19:20;37.28;;;22.42;;
59504;SDS011;45321;53.200;5.814;2023-05-10T01:30:08;37.25;;;21.08;;
59504;SDS011;45321;53.200;5.814;2023-05-10T01:35:32;42.80;;;20.10;;
59504;SDS011;45321;53.200;5.814;2023-05-10T01:43:19;44.30;;;22.48;;
59504;SDS011;45321;53.200;5.814;2023-05-10T01:48:26;39.23;;;23.93;;
59504;SDS011;45321;53.200;5.814;2023-05-10T01:50:53;43.63;;;23.20;;
59504;SDS011;45321;53.200;5.814;2023-05-10T01:53:21;38.97;;;23.58;;
59504;SDS011;45321;53.200;5.814;2023-05-10T01:55:49;36.03;;;23.98;;
59504;SDS011;45321;53.200;5.814;2023-05-10T01:58:22;31.83;;;22.80;;
59504;SDS011;45321;53.200;5.814;2023-05-10T02:00:58;26.63;;;19.42;;
59504;SDS011;45321;53.200;5.814;2023-05-10T02:03:26;21.23;;;17.73;;
59504;SDS011;45321;53.200;5.814;2023-05-10T02:05:54;19.63;;;17.63;;
59504;SDS011;45321;53.200;5.814;2023-05-10T02:08:22;19.25;;;17.13;;
59504;SDS011;45321;53.200;5.814;2023-05-10T02:10:50;16.02;;;14.40;;
59504;SDS011;45321;53.200;5.814;2023-05-10T02:13:17;16.63;;;15.10;;
59504;SDS011;45321;53.200;5.814;2023-05-10T02:15:43;14.90;;;13.40;;
59504;SDS011;45321;53.200;5.814;2023-05-10T02:18:13;13.90;;;12.70;;
59504;SDS011;45321;53.200;5.814;2023-05-10T02:20:40;12.65;;;11.55;;
59504;SDS011;45321;53.200;5.814;2023-05-10T02:23:08;13.43;;;12.23;;
59504;SDS011;45321;53.200;5.814;2023-05-10T02:25:34;10.05;;;9.15;;
59504;SDS011;45321;53.200;5.814;2023-05-10T02:28:04;8.35;;;7.72;;
59504;SDS011;45321;53.200;5.814;2023-05-10T02:30:31;6.38;;;5.88;;
59504;SDS011;45321;53.200;5.814;2023-05-10T02:32:58;6.35;;;5.85;;
59504;SDS011;45321;53.200;5.814;2023-05-10T02:35:26;5.07;;;4.68;;
59504;SDS011;45321;53.200;5.814;2023-05-10T02:37:53;4.15;;;3.85;;
59504;SDS011;45321;53.200;5.814;2023-05-10T02:40:19;3.40;;;3.20;;
59504;SDS011;45321;53.200;5.814;2023-05-10T02:42:48;3.08;;;2.88;;
59504;SDS011;45321;53.200;5.814;2023-05-10T02:45:19;2.65;;;2.47;;
59504;SDS011;45321;53.200;5.814;2023-05-10T02:47:48;2.47;;;1.85;;
59504;SDS011;45321;53.200;5.814;2023-05-10T02:50:14;1.60;;;1.50;;
59504;SDS011;45321;53.200;5.814;2023-05-10T02:52:40;1.50;;;1.40;;
59504;SDS011;45321;53.200;5.814;2023-05-10T02:55:11;1.58;;;1.48;;
59504;SDS011;45321;53.200;5.814;2023-05-10T02:57:46;1.63;;;1.52;;
59504;SDS011;45321;53.200;5.814;2023-05-10T03:00:16;1.23;;;1.15;;
59504;SDS011;45321;53.200;5.814;2023-05-10T03:02:42;1.38;;;1.38;;
59504;SDS011;45321;53.200;5.814;2023-05-10T03:05:08;1.30;;;1.30;;
59504;SDS011;45321;53.200;5.814;2023-05-10T03:07:34;1.70;;;1.60;;
59504;SDS011;45321;53.200;5.814;2023-05-10T03:10:00;1.45;;;1.35;;
59504;SDS011;45321;53.200;5.814;2023-05-10T03:12:31;1.45;;;1.35;;
59504;SDS011;45321;53.200;5.814;2023-05-10T03:18:48;1.70;;;1.60;;
59504;SDS011;45321;53.200;5.814;2023-05-10T03:23:27;2.15;;;1.58;;
59504;SDS011;45321;53.200;5.814;2023-05-10T03:26:00;1.70;;;1.60;;
59504;SDS011;45321;53.200;5.814;2023-05-10T03:28:28;1.45;;;1.35;;
59504;SDS011;45321;53.200;5.814;2023-05-10T03:30:54;1.60;;;1.50;;
59504;SDS011;45321;53.200;5.814;2023-05-10T03:33:21;1.80;;;1.70;;
59504;SDS011;45321;53.200;5.814;2023-05-10T03:35:47;1.98;;;1.88;;
59504;SDS011;45321;53.200;5.814;2023-05-10T03:38:13;2.00;;;1.90;;
59504;SDS011;45321;53.200;5.814;2023-05-10T03:40:39;2.35;;;2.15;;
59504;SDS011;45321;53.200;5.814;2023-05-10T03:43:04;2.28;;;2.17;;
59504;SDS011;45321;53.200;5.814;2023-05-10T03:45:30;2.40;;;2.30;;
59504;SDS011;45321;53.200;5.814;2023-05-10T03:47:57;2.33;;;2.22;;
59504;SDS011;45321;53.200;5.814;2023-05-10T03:50:23;3.20;;;2.50;;
59504;SDS011;45321;53.200;5.814;2023-05-10T03:52:48;2.45;;;2.35;;
59504;SDS011;45321;53.200;5.814;2023-05-10T03:55:14;2.42;;;2.30;;
59504;SDS011;45321;53.200;5.814;2023-05-10T03:57:41;2.42;;;2.22;;
59504;SDS011;45321;53.200;5.814;2023-05-10T04:00:07;2.22;;;2.13;;
59504;SDS011;45321;53.200;5.814;2023-05-10T04:02:33;2.67;;;2.47;;
59504;SDS011;45321;53.200;5.814;2023-05-10T04:04:59;1.73;;;1.63;;
59504;SDS011;45321;53.200;5.814;2023-05-10T04:07:24;3.20;;;1.55;;
59504;SDS011;45321;53.200;5.814;2023-05-10T04:09:50;1.30;;;1.30;;
59504;SDS011;45321;53.200;5.814;2023-05-10T04:12:16;1.27;;;1.27;;
59504;SDS011;45321;53.200;5.814;2023-05-10T04:14:41;1.20;;;1.20;;
59504;SDS011;45321;53.200;5.814;2023-05-10T04:17:07;1.23;;;1.23;;
59504;SDS011;45321;53.200;5.814;2023-05-10T04:19:33;3.40;;;1.60;;
59504;SDS011;45321;53.200;5.814;2023-05-10T04:21:58;1.35;;;1.35;;
59504;SDS011;45321;53.200;5.814;2023-05-10T04:24:24;1.80;;;1.70;;
59504;SDS011;45321;53.200;5.814;2023-05-10T04:26:50;1.90;;;1.80;;
59504;SDS011;45321;53.200;5.814;2023-05-10T04:29:16;2.30;;;2.20;;
59504;SDS011;45321;53.200;5.814;2023-05-10T04:31:42;2.63;;;2.00;;
59504;SDS011;45321;53.200;5.814;2023-05-10T04:34:08;2.22;;;2.10;;
59504;SDS011;45321;53.200;5.814;2023-05-10T04:36:33;2.50;;;2.30;;
59504;SDS011;45321;53.200;5.814;2023-05-10T04:39:01;2.20;;;2.00;;
59504;SDS011;45321;53.200;5.814;2023-05-10T04:41:30;2.35;;;2.25;;
59504;SDS011;45321;53.200;5.814;2023-05-10T04:43:56;3.17;;;2.78;;
59504;SDS011;45321;53.200;5.814;2023-05-10T04:46:21;2.90;;;2.70;;
59504;SDS011;45321;53.200;5.814;2023-05-10T04:48:47;3.58;;;3.28;;
59504;SDS011;45321;53.200;5.814;2023-05-10T04:51:13;5.47;;;4.97;;
59504;SDS011;45321;53.200;5.814;2023-05-10T04:53:39;5.00;;;4.60;;
59504;SDS011;45321;53.200;5.814;2023-05-10T04:56:05;5.22;;;4.88;;
59504;SDS011;45321;53.200;5.814;2023-05-10T04:58:31;6.07;;;5.60;;
59504;SDS011;45321;53.200;5.814;2023-05-10T05:00:56;7.32;;;6.72;;
59504;SDS011;45321;53.200;5.814;2023-05-10T05:03:22;8.27;;;7.57;;
59504;SDS011;45321;53.200;5.814;2023-05-10T05:05:48;9.88;;;8.98;;
59504;SDS011;45321;53.200;5.814;2023-05-10T05:08:13;9.48;;;8.68;;
59504;SDS011;45321;53.200;5.814;2023-05-10T05:10:39;10.07;;;9.15;;
59504;SDS011;45321;53.200;5.814;2023-05-10T05:13:05;9.40;;;8.55;;
59504;SDS011;45321;53.200;5.814;2023-05-10T05:15:34;8.52;;;7.78;;
59504;SDS011;45321;53.200;5.814;2023-05-10T05:17:59;7.93;;;7.10;;
59504;SDS011;45321;53.200;5.814;2023-05-10T05:20:25;7.13;;;6.63;;
59504;SDS011;45321;53.200;5.814;2023-05-10T05:22:51;7.63;;;6.40;;
59504;SDS011;45321;53.200;5.814;2023-05-10T05:25:16;5.60;;;5.10;;
59504;SDS011;45321;53.200;5.814;2023-05-10T05:27:42;5.88;;;4.97;;
59504;SDS011;45321;53.200;5.814;2023-05-10T05:30:10;6.70;;;6.20;;
59504;SDS011;45321;53.200;5.814;2023-05-10T05:32:36;5.45;;;5.05;;
59504;SDS011;45321;53.200;5.814;2023-05-10T05:35:02;5.57;;;5.07;;
59504;SDS011;45321;53.200;5.814;2023-05-10T05:37:28;5.22;;;4.82;;
59504;SDS011;45321;53.200;5.814;2023-05-10T05:39:53;5.50;;;5.10;;
59504;SDS011;45321;53.200;5.814;2023-05-10T05:42:20;5.75;;;4.95;;
59504;SDS011;45321;53.200;5.814;2023-05-10T05:44:45;6.10;;;4.68;;
59504;SDS011;45321;53.200;5.814;2023-05-10T05:47:11;5.45;;;4.80;;
59504;SDS011;45321;53.200;5.814;2023-05-10T05:49:41;5.25;;;4.85;;
59504;SDS011;45321;53.200;5.814;2023-05-10T05:52:07;4.93;;;4.25;;
59504;SDS011;45321;53.200;5.814;2023-05-10T05:54:33;4.32;;;3.83;;
59504;SDS011;45321;53.200;5.814;2023-05-10T05:56:59;3.40;;;3.10;;
59504;SDS011;45321;53.200;5.814;2023-05-10T05:59:26;3.17;;;2.88;;
59504;SDS011;45321;53.200;5.814;2023-05-10T06:01:52;2.60;;;2.40;;
59504;SDS011;45321;53.200;5.814;2023-05-10T06:04:20;3.35;;;2.90;;
59504;SDS011;45321;53.200;5.814;2023-05-10T06:06:46;2.47;;;2.28;;
59504;SDS011;45321;53.200;5.814;2023-05-10T06:09:11;1.90;;;1.80;;
59504;SDS011;45321;53.200;5.814;2023-05-10T06:11:38;1.85;;;1.75;;
59504;SDS011;45321;53.200;5.814;2023-05-10T06:14:04;1.45;;;1.35;;
59504;SDS011;45321;53.200;5.814;2023-05-10T06:16:32;1.30;;;1.20;;
59504;SDS011;45321;53.200;5.814;2023-05-10T06:18:58;1.30;;;1.20;;
59504;SDS011;45321;53.200;5.814;2023-05-10T06:21:23;1.70;;;1.60;;
59504;SDS011;45321;53.200;5.814;2023-05-10T06:23:49;2.13;;;1.92;;
59504;SDS011;45321;53.200;5.814;2023-05-10T06:26:15;2.80;;;1.63;;
59504;SDS011;45321;53.200;5.814;2023-05-10T06:28:41;2.72;;;2.13;;
59504;SDS011;45321;53.200;5.814;2023-05-10T06:31:06;2.10;;;1.90;;
59504;SDS011;45321;53.200;5.814;2023-05-10T06:33:32;3.25;;;2.20;;
59504;SDS011;45321;53.200;5.814;2023-05-10T06:35:59;4.82;;;2.95;;
59504;SDS011;45321;53.200;5.814;2023-05-10T06:38:25;3.78;;;2.60;;
59504;SDS011;45321;53.200;5.814;2023-05-10T06:40:51;3.10;;;2.80;;
59504;SDS011;45321;53.200;5.814;2023-05-10T06:43:16;3.63;;;3.13;;
59504;SDS011;45321;53.200;5.814;2023-05-10T06:45:42;4.80;;;3.20;;
59504;SDS011;45321;53.200;5.814;2023-05-10T06:48:08;3.25;;;2.80;;
59504;SDS011;45321;53.200;5.814;2023-05-10T06:50:34;3.65;;;3.35;;
59504;SDS011;45321;53.200;5.814;2023-05-10T06:53:00;3.80;;;2.97;;
59504;SDS011;45321;53.200;5.814;2023-05-10T06:55:26;2.97;;;2.78;;
59504;SDS011;45321;53.200;5.814;2023-05-10T06:57:52;3.35;;;2.97;;
59504;SDS011;45321;53.200;5.814;2023-05-10T07:00:19;4.13;;;2.88;;
59504;SDS011;45321;53.200;5.814;2023-05-10T07:02:45;4.07;;;3.63;;
59504;SDS011;45321;53.200;5.814;2023-05-10T07:05:11;5.30;;;4.28;;
59504;SDS011;45321;53.200;5.814;2023-05-10T07:07:37;6.03;;;4.90;;
59504;SDS011;45321;53.200;5.814;2023-05-10T07:10:03;6.20;;;5.13;;
59504;SDS011;45321;53.200;5.814;2023-05-10T07:12:29;6.05;;;5.00;;
59504;SDS011;45321;53.200;5.814;2023-05-10T07:14:55;7.63;;;5.10;;
59504;SDS011;45321;53.200;5.814;2023-05-10T07:17:21;5.43;;;4.75;;
59504;SDS011;45321;53.200;5.814;2023-05-10T07:19:47;5.35;;;4.68;;
59504;SDS011;45321;53.200;5.814;2023-05-10T07:22:13;5.18;;;4.22;;
59504;SDS011;45321;53.200;5.814;2023-05-10T07:24:39;4.82;;;4.10;;
59504;SDS011;45321;53.200;5.814;2023-05-10T07:27:05;4.75;;;4.30;;
59504;SDS011;45321;53.200;5.814;2023-05-10T07:29:31;6.63;;;4.80;;
59504;SDS011;45321;53.200;5.814;2023-05-10T07:31:57;5.05;;;4.32;;
59504;SDS011;45321;53.200;5.814;2023-05-10T07:34:23;4.90;;;4.40;;
59504;SDS011;45321;53.200;5.814;2023-05-10T07:36:49;5.25;;;4.57;;
59504;SDS011;45321;53.200;5.814;2023-05-10T07:39:14;5.70;;;4.82;;
59504;SDS011;45321;53.200;5.814;2023-05-10T07:41:40;7.28;;;4.43;;
59504;SDS011;45321;53.200;5.814;2023-05-10T07:44:06;7.00;;;4.88;;
59504;SDS011;45321;53.200;5.814;2023-05-10T07:46:32;5.07;;;4.68;;
59504;SDS011;45321;53.200;5.814;2023-05-10T07:48:57;6.45;;;5.43;;
59504;SDS011;45321;53.200;5.814;2023-05-10T07:51:23;5.90;;;5.30;;
59504;SDS011;45321;53.200;5.814;2023-05-10T07:53:49;6.28;;;5.68;;
59504;SDS011;45321;53.200;5.814;2023-05-10T07:58:52;5.78;;;5.25;;
59504;SDS011;45321;53.200;5.814;2023-05-10T08:01:19;5.65;;;5.15;;
59504;SDS011;45321;53.200;5.814;2023-05-10T08:03:45;5.70;;;4.93;;
59504;SDS011;45321;53.200;5.814;2023-05-10T08:06:11;8.15;;;5.93;;
59504;SDS011;45321;53.200;5.814;2023-05-10T08:08:37;7.30;;;5.65;;
59504;SDS011;45321;53.200;5.814;2023-05-10T08:11:03;6.45;;;5.40;;
59504;SDS011;45321;53.200;5.814;2023-05-10T08:13:29;6.78;;;6.18;;
59504;SDS011;45321;53.200;5.814;2023-05-10T08:15:56;6.35;;;5.50;;
59504;SDS011;45321;53.200;5.814;2023-05-10T08:18:22;6.10;;;5.50;;
59504;SDS011;45321;53.200;5.814;2023-05-10T08:20:48;6.53;;;5.82;;
59504;SDS011;45321;53.200;5.814;2023-05-10T08:23:14;7.53;;;5.65;;
59504;SDS011;45321;53.200;5.814;2023-05-10T08:25:39;6.05;;;5.55;;
59504;SDS011;45321;53.200;5.814;2023-05-10T08:28:05;7.00;;;6.22;;
59504;SDS011;45321;53.200;5.814;2023-05-10T08:30:31;9.32;;;6.28;;
59504;SDS011;45321;53.200;5.814;2023-05-10T08:32:57;6.18;;;5.25;;
59504;SDS011;45321;53.200;5.814;2023-05-10T08:35:22;6.88;;;6.03;;
59504;SDS011;45321;53.200;5.814;2023-05-10T08:37:50;6.88;;;5.70;;
59504;SDS011;45321;53.200;5.814;2023-05-10T08:40:16;7.05;;;5.65;;
59504;SDS011;45321;53.200;5.814;2023-05-10T08:42:48;6.75;;;6.05;;
59504;SDS011;45321;53.200;5.814;2023-05-10T08:45:21;7.07;;;6.40;;
59504;SDS011;45321;53.200;5.814;2023-05-10T08:47:48;7.15;;;6.43;;
59504;SDS011;45321;53.200;5.814;2023-05-10T08:50:16;7.85;;;6.60;;
59504;SDS011;45321;53.200;5.814;2023-05-10T08:52:44;8.32;;;6.47;;
59504;SDS011;45321;53.200;5.814;2023-05-10T08:55:12;7.38;;;6.68;;
59504;SDS011;45321;53.200;5.814;2023-05-10T08:57:38;7.93;;;7.13;;
59504;SDS011;45321;53.200;5.814;2023-05-10T09:00:04;7.90;;;7.07;;
59504;SDS011;45321;53.200;5.814;2023-05-10T09:02:31;8.45;;;7.20;;
59504;SDS011;45321;53.200;5.814;2023-05-10T09:04:57;7.93;;;7.03;;
59504;SDS011;45321;53.200;5.814;2023-05-10T09:07:23;9.65;;;8.00;;
59504;SDS011;45321;53.200;5.814;2023-05-10T09:09:49;10.25;;;7.95;;
59504;SDS011;45321;53.200;5.814;2023-05-10T09:12:16;8.82;;;7.65;;
59504;SDS011;45321;53.200;5.814;2023-05-10T09:14:42;8.95;;;7.25;;
59504;SDS011;45321;53.200;5.814;2023-05-10T09:17:10;10.45;;;7.93;;
59504;SDS011;45321;53.200;5.814;2023-05-10T09:19:36;9.30;;;7.65;;
59504;SDS011;45321;53.200;5.814;2023-05-10T09:22:03;8.93;;;7.45;;
59504;SDS011;45321;53.200;5.814;2023-05-10T09:24:29;8.25;;;7.38;;
59504;SDS011;45321;53.200;5.814;2023-05-10T09:26:56;7.32;;;6.63;;
59504;SDS011;45321;53.200;5.814;2023-05-10T09:29:23;8.95;;;7.03;;
59504;SDS011;45321;53.200;5.814;2023-05-10T09:31:49;7.53;;;6.47;;
59504;SDS011;45321;53.200;5.814;2023-05-10T09:34:34;7.68;;;6.30;;
59504;SDS011;45321;53.200;5.814;2023-05-10T09:37:04;6.63;;;6.03;;
59504;SDS011;45321;53.200;5.814;2023-05-10T09:39:34;6.45;;;5.85;;
59504;SDS011;45321;53.200;5.814;2023-05-10T09:42:04;6.85;;;6.15;;
59504;SDS011;45321;53.200;5.814;2023-05-10T09:44:32;8.27;;;6.03;;
59504;SDS011;45321;53.200;5.814;2023-05-10T09:46:59;6.72;;;6.03;;
59504;SDS011;45321;53.200;5.814;2023-05-10T09:49:25;7.60;;;6.80;;
59504;SDS011;45321;53.200;5.814;2023-05-10T09:52:01;7.82;;;7.03;;
59504;SDS011;45321;53.200;5.814;2023-05-10T09:54:27;7.13;;;6.05;;
59504;SDS011;45321;53.200;5.814;2023-05-10T09:56:53;9.20;;;7.32;;
59504;SDS011;45321;53.200;5.814;2023-05-10T09:59:19;9.15;;;7.43;;
59504;SDS011;45321;53.200;5.814;2023-05-10T10:01:51;11.23;;;7.47;;
59504;SDS011;45321;53.200;5.814;2023-05-10T10:04:18;8.68;;;7.07;;
59504;SDS011;45321;53.200;5.814;2023-05-10T10:06:46;7.97;;;7.07;;
59504;SDS011;45321;53.200;5.814;2023-05-10T10:09:23;8.18;;;6.55;;
59504;SDS011;45321;53.200;5.814;2023-05-10T10:11:49;8.18;;;7.38;;
59504;SDS011;45321;53.200;5.814;2023-05-10T10:14:16;9.77;;;7.63;;
59504;SDS011;45321;53.200;5.814;2023-05-10T10:16:48;9.10;;;8.07;;
59504;SDS011;45321;53.200;5.814;2023-05-10T10:19:15;9.70;;;7.75;;
59504;SDS011;45321;53.200;5.814;2023-05-10T10:21:40;10.80;;;8.27;;
59504;SDS011;45321;53.200;5.814;2023-05-10T10:24:06;8.77;;;7.88;;
59504;SDS011;45321;53.200;5.814;2023-05-10T10:26:35;9.23;;;8.20;;
59504;SDS011;45321;53.200;5.814;2023-05-10T10:29:08;8.85;;;7.82;;
59504;SDS011;45321;53.200;5.814;2023-05-10T10:34:06;7.95;;;7.20;;
59504;SDS011;45321;53.200;5.814;2023-05-10T10:36:50;9.05;;;7.80;;
59504;SDS011;45321;53.200;5.814;2023-05-10T10:39:16;8.23;;;6.78;;
59504;SDS011;45321;53.200;5.814;2023-05-10T10:47:02;6.50;;;5.65;;
59504;SDS011;45321;53.200;5.814;2023-05-10T10:49:52;6.38;;;5.78;;
59504;SDS011;45321;53.200;5.814;2023-05-10T10:52:41;6.80;;;5.90;;
59504;SDS011;45321;53.200;5.814;2023-05-10T10:55:09;6.90;;;5.78;;
59504;SDS011;45321;53.200;5.814;2023-05-10T11:05:49;5.35;;;4.85;;
59504;SDS011;45321;53.200;5.814;2023-05-10T11:08:29;6.68;;;5.60;;
59504;SDS011;45321;53.200;5.814;2023-05-10T11:13:29;5.40;;;4.90;;
59504;SDS011;45321;53.200;5.814;2023-05-10T11:16:13;5.72;;;4.72;;
59504;SDS011;45321;53.200;5.814;2023-05-10T11:18:52;5.07;;;4.57;;
59504;SDS011;45321;53.200;5.814;2023-05-10T11:21:33;6.10;;;5.15;;
59504;SDS011;45321;53.200;5.814;2023-05-10T11:24:12;5.75;;;5.20;;
59504;SDS011;45321;53.200;5.814;2023-05-10T11:26:40;6.53;;;5.82;;
59504;SDS011;45321;53.200;5.814;2023-05-10T11:29:06;6.15;;;5.65;;
59504;SDS011;45321;53.200;5.814;2023-05-10T11:31:32;7.55;;;5.82;;
59504;SDS011;45321;53.200;5.814;2023-05-10T11:33:58;7.20;;;6.50;;
59504;SDS011;45321;53.200;5.814;2023-05-10T11:36:27;8.73;;;7.88;;
59504;SDS011;45321;53.200;5.814;2023-05-10T11:38:55;7.28;;;6.63;;
59504;SDS011;45321;53.200;5.814;2023-05-10T11:41:22;7.75;;;7.00;;
59504;SDS011;45321;53.200;5.814;2023-05-10T11:43:52;8.45;;;7.13;;
59504;SDS011;45321;53.200;5.814;2023-05-10T11:46:20;6.60;;;6.00;;
59504;SDS011;45321;53.200;5.814;2023-05-10T11:48:49;8.43;;;7.63;;
59504;SDS011;45321;53.200;5.814;2023-05-10T11:51:19;8.48;;;7.68;;
59504;SDS011;45321;53.200;5.814;2023-05-10T11:53:46;7.63;;;6.90;;
59504;SDS011;45321;53.200;5.814;2023-05-10T11:56:12;8.80;;;7.90;;
59504;SDS011;45321;53.200;5.814;2023-05-10T11:58:38;8.35;;;7.55;;
59504;SDS011;45321;53.200;5.814;2023-05-10T12:01:05;8.98;;;8.07;;
59504;SDS011;45321;53.200;5.814;2023-05-10T12:03:32;9.63;;;8.63;;
59504;SDS011;45321;53.200;5.814;2023-05-10T12:06:00;10.32;;;9.32;;
59504;SDS011;45321;53.200;5.814;2023-05-10T12:08:27;8.82;;;7.93;;
59504;SDS011;45321;53.200;5.814;2023-05-10T12:11:03;8.57;;;7.78;;
59504;SDS011;45321;53.200;5.814;2023-05-10T12:13:30;9.15;;;8.13;;
59504;SDS011;45321;53.200;5.814;2023-05-10T12:15:59;10.50;;;9.00;;
59504;SDS011;45321;53.200;5.814;2023-05-10T12:18:38;9.70;;;8.50;;
59504;SDS011;45321;53.200;5.814;2023-05-10T12:21:05;9.75;;;8.75;;
59504;SDS011;45321;53.200;5.814;2023-05-10T12:23:31;8.70;;;7.78;;
59504;SDS011;45321;53.200;5.814;2023-05-10T12:26:01;10.65;;;8.00;;
59504;SDS011;45321;53.200;5.814;2023-05-10T12:28:32;7.97;;;7.10;;
59504;SDS011;45321;53.200;5.814;2023-05-10T12:31:01;8.07;;;7.10;;
59504;SDS011;45321;53.200;5.814;2023-05-10T12:33:28;6.78;;;5.43;;
59504;SDS011;45321;53.200;5.814;2023-05-10T12:36:04;8.32;;;6.38;;
59504;SDS011;45321;53.200;5.814;2023-05-10T12:41:03;7.53;;;6.10;;
59504;SDS011;45321;53.200;5.814;2023-05-10T12:43:31;9.35;;;5.97;;
59504;SDS011;45321;53.200;5.814;2023-05-10T12:45:57;6.85;;;5.18;;
59504;SDS011;45321;53.200;5.814;2023-05-10T12:48:28;6.55;;;5.75;;
59504;SDS011;45321;53.200;5.814;2023-05-10T12:50:56;11.48;;;6.40;;
59504;SDS011;45321;53.200;5.814;2023-05-10T12:53:21;7.57;;;5.50;;
59504;SDS011;45321;53.200;5.814;2023-05-10T12:55:47;6.28;;;4.82;;
59504;SDS011;45321;53.200;5.814;2023-05-10T12:58:13;5.70;;;4.88;;
59504;SDS011;45321;53.200;5.814;2023-05-10T13:00:39;6.05;;;5.18;;
59504;SDS011;45321;53.200;5.814;2023-05-10T13:03:05;6.38;;;5.43;;
59504;SDS011;45321;53.200;5.814;2023-05-10T13:05:33;6.95;;;5.90;;
59504;SDS011;45321;53.200;5.814;2023-05-10T13:07:59;7.22;;;5.82;;
59504;SDS011;45321;53.200;5.814;2023-05-10T13:10:25;5.85;;;4.20;;
59504;SDS011;45321;53.200;5.814;2023-05-10T13:12:51;7.32;;;4.90;;
59504;SDS011;45321;53.200;5.814;2023-05-10T13:15:17;8.63;;;6.60;;
59504;SDS011;45321;53.200;5.814;2023-05-10T13:17:46;7.07;;;6.22;;
59504;SDS011;45321;53.200;5.814;2023-05-10T13:20:11;8.95;;;6.07;;
59504;SDS011;45321;53.200;5.814;2023-05-10T13:22:37;7.50;;;6.68;;
59504;SDS011;45321;53.200;5.814;2023-05-10T13:25:03;7.22;;;6.50;;
59504;SDS011;45321;53.200;5.814;2023-05-10T13:27:29;9.73;;;7.93;;
59504;SDS011;45321;53.200;5.814;2023-05-10T13:29:55;7.97;;;6.32;;
59504;SDS011;45321;53.200;5.814;2023-05-10T13:32:20;7.68;;;5.93;;
59504;SDS011;45321;53.200;5.814;2023-05-10T13:34:46;7.72;;;6.53;;
59504;SDS011;45321;53.200;5.814;2023-05-10T13:37:12;8.15;;;7.05;;
59504;SDS011;45321;53.200;5.814;2023-05-10T13:39:37;6.50;;;5.30;;
59504;SDS011;45321;53.200;5.814;2023-05-10T13:42:03;5.45;;;4.57;;
59504;SDS011;45321;53.200;5.814;2023-05-10T13:44:29;3.80;;;3.05;;
59504;SDS011;45321;53.200;5.814;2023-05-10T13:46:55;4.60;;;4.20;;
59504;SDS011;45321;53.200;5.814;2023-05-10T13:49:21;7.10;;;6.43;;
59504;SDS011;45321;53.200;5.814;2023-05-10T13:51:47;6.15;;;5.55;;
59504;SDS011;45321;53.200;5.814;2023-05-10T13:54:13;5.88;;;5.38;;
59504;SDS011;45321;53.200;5.814;2023-05-10T13:56:39;5.50;;;5.00;;
59504;SDS011;45321;53.200;5.814;2023-05-10T13:59:07;6.95;;;5.40;;
59504;SDS011;45321;53.200;5.814;2023-05-10T14:01:33;6.03;;;5.43;;
59504;SDS011;45321;53.200;5.814;2023-05-10T14:03:59;5.50;;;5.00;;
59504;SDS011;45321;53.200;5.814;2023-05-10T14:06:25;5.78;;;5.28;;
59504;SDS011;45321;53.200;5.814;2023-05-10T14:08:52;5.38;;;4.85;;
59504;SDS011;45321;53.200;5.814;2023-05-10T14:11:18;4.90;;;4.50;;
59504;SDS011;45321;53.200;5.814;2023-05-10T14:13:44;3.80;;;3.40;;
59504;SDS011;45321;53.200;5.814;2023-05-10T14:16:10;4.40;;;4.00;;
59504;SDS011;45321;53.200;5.814;2023-05-10T14:18:36;3.50;;;3.20;;
59504;SDS011;45321;53.200;5.814;2023-05-10T14:21:03;3.20;;;2.90;;
59504;SDS011;45321;53.200;5.814;2023-05-10T14:23:29;2.45;;;2.25;;
59504;SDS011;45321;53.200;5.814;2023-05-10T14:25:55;2.70;;;2.50;;
59504;SDS011;45321;53.200;5.814;2023-05-10T14:28:21;3.55;;;2.80;;
59504;SDS011;45321;53.200;5.814;2023-05-10T14:30:48;2.90;;;2.70;;
59504;SDS011;45321;53.200;5.814;2023-05-10T14:33:14;2.20;;;2.00;;
59504;SDS011;45321;53.200;5.814;2023-05-10T14:35:40;2.65;;;2.45;;
59504;SDS011;45321;53.200;5.814;2023-05-10T14:38:06;2.78;;;2.53;;
59504;SDS011;45321;53.200;5.814;2023-05-10T14:40:32;3.30;;;3.10;;
59504;SDS011;45321;53.200;5.814;2023-05-10T14:42:58;3.97;;;3.67;;
59504;SDS011;45321;53.200;5.814;2023-05-10T14:45:24;3.50;;;3.30;;
59504;SDS011;45321;53.200;5.814;2023-05-10T14:47:49;3.50;;;2.88;;
59504;SDS011;45321;53.200;5.814;2023-05-10T14:50:15;3.78;;;3.40;;
59504;SDS011;45321;53.200;5.814;2023-05-10T14:52:43;4.10;;;3.80;;
59504;SDS011;45321;53.200;5.814;2023-05-10T14:55:09;4.00;;;3.70;;
59504;SDS011;45321;53.200;5.814;2023-05-10T14:57:35;4.03;;;3.72;;
59504;SDS011;45321;53.200;5.814;2023-05-10T15:00:01;4.20;;;3.80;;
59504;SDS011;45321;53.200;5.814;2023-05-10T15:02:27;3.83;;;3.50;;
59504;SDS011;45321;53.200;5.814;2023-05-10T15:04:53;3.85;;;3.55;;
59504;SDS011;45321;53.200;5.814;2023-05-10T15:07:19;3.90;;;3.53;;
59504;SDS011;45321;53.200;5.814;2023-05-10T15:09:44;4.72;;;3.80;;
59504;SDS011;45321;53.200;5.814;2023-05-10T15:12:10;4.57;;;4.07;;
59504;SDS011;45321;53.200;5.814;2023-05-10T15:14:36;4.57;;;4.18;;
59504;SDS011;45321;53.200;5.814;2023-05-10T15:17:02;5.20;;;4.70;;
59504;SDS011;45321;53.200;5.814;2023-05-10T15:19:29;5.15;;;4.50;;
59504;SDS011;45321;53.200;5.814;2023-05-10T15:21:54;4.80;;;3.88;;
59504;SDS011;45321;53.200;5.814;2023-05-10T15:24:21;5.28;;;4.78;;
59504;SDS011;45321;53.200;5.814;2023-05-10T15:26:47;4.22;;;3.83;;
59504;SDS011;45321;53.200;5.814;2023-05-10T15:29:13;4.15;;;3.75;;
59504;SDS011;45321;53.200;5.814;2023-05-10T15:31:47;5.07;;;4.35;;